Time;durP1;ratioP1;P1;durP2;ratioP2;P2;SDS_P1;SDS_P2;PMS_P1;PMS_P2;Temp;Humidity;BMP_temperature;BMP_pressure;BME280_temperature;BME280_humidity;BME280_pressure;Samples;Min_cycle;Max_cycle;Signal;HPM_P1;HPM_P2
2023/03/17 00:00:42;;;;;;;;;21.50;18.25;;;;;13.24;50.63;100258.31;5059360;27;45330;-67
2023/03/17 00:03:16;;;;;;;;;25.50;21.50;;;;;13.14;50.43;100247.97;5075946;27;45869;-68
2023/03/17 00:05:42;;;;;;;;;23.00;18.50;;;;;13.18;50.58;100253.19;5072582;27;45486;-67
2023/03/17 00:08:37;;;;;;;;;26.25;18.75;;;;;13.21;50.53;100269.75;5062171;28;45513;-66
2023/03/17 00:11:03;;;;;;;;;20.00;17.25;;;;;13.06;50.65;100251.63;5056978;28;46153;-68
2023/03/17 00:13:29;;;;;;;;;20.75;18.75;;;;;13.10;51.24;100261.19;5068435;27;45426;-67
2023/03/17 00:16:00;;;;;;;;;22.25;18.25;;;;;13.08;51.58;100269.09;5057617;28;45399;-68
2023/03/17 00:18:29;;;;;;;;;21.50;15.75;;;;;13.05;50.97;100271.78;5060314;28;45550;-67
2023/03/17 00:20:54;;;;;;;;;25.50;21.50;;;;;13.09;51.17;100278.72;5073242;27;45986;-68
2023/03/17 00:23:23;;;;;;;;;19.25;19.00;;;;;13.03;51.18;100283.22;5070989;27;45468;-69
2023/03/17 00:25:52;;;;;;;;;23.00;19.25;;;;;13.04;51.46;100288.44;5060236;27;45311;-68
2023/03/17 00:28:23;;;;;;;;;20.50;17.75;;;;;12.93;51.38;100280.72;5065711;27;45493;-67
2023/03/17 00:30:54;;;;;;;;;24.50;18.75;;;;;13.00;51.78;100292.00;5072172;27;45673;-68
2023/03/17 00:33:25;;;;;;;;;18.75;17.25;;;;;12.94;51.59;100274.56;5073775;27;45470;-68
2023/03/17 00:35:51;;;;;;;;;20.50;18.25;;;;;12.94;51.58;100284.22;5074065;27;45802;-69
2023/03/17 00:38:19;;;;;;;;;15.75;15.75;;;;;13.00;51.22;100292.00;5077000;27;45413;-67
2023/03/17 00:40:46;;;;;;;;;18.75;17.75;;;;;13.01;51.57;100285.00;5077160;27;45455;-68
2023/03/17 00:43:12;;;;;;;;;16.25;15.50;;;;;12.95;51.26;100283.31;5077815;27;45479;-67
2023/03/17 00:45:39;;;;;;;;;18.25;16.25;;;;;12.96;51.59;100289.47;5077674;27;45615;-68
2023/03/17 00:48:13;;;;;;;;;19.75;17.25;;;;;12.88;51.58;100287.81;5073350;27;45349;-67
2023/03/17 00:50:39;;;;;;;;;18.75;15.00;;;;;12.95;51.89;100293.84;5072860;28;45435;-67
2023/03/17 00:53:09;;;;;;;;;16.75;15.50;;;;;12.90;52.17;100288.63;5073583;27;45952;-67
2023/03/17 00:55:35;;;;;;;;;21.75;17.25;;;;;12.95;51.92;100288.56;5073673;27;46021;-67
2023/03/17 00:58:01;;;;;;;;;21.75;18.25;;;;;12.90;52.17;100283.38;5073831;27;45365;-67
2023/03/17 01:00:28;;;;;;;;;18.50;15.75;;;;;12.92;51.59;100278.13;5071457;27;45469;-67
2023/03/17 01:02:56;;;;;;;;;19.50;15.00;;;;;12.94;52.10;100273.72;5072726;27;45847;-66
2023/03/17 01:05:24;;;;;;;;;17.00;16.00;;;;;12.94;51.43;100271.94;5073159;27;45542;-67
2023/03/17 01:07:53;;;;;;;;;20.25;16.25;;;;;12.90;51.54;100278.13;5075140;27;45302;-69
2023/03/17 01:10:23;;;;;;;;;22.25;17.75;;;;;12.96;51.35;100289.47;5074280;27;45830;-67
2023/03/17 01:12:49;;;;;;;;;23.75;18.75;;;;;12.97;51.93;100292.06;5073160;27;45476;-67
2023/03/17 01:15:16;;;;;;;;;21.50;19.00;;;;;12.92;51.61;100296.50;5068829;27;45495;-68
2023/03/17 01:17:42;;;;;;;;;16.25;15.25;;;;;12.85;51.85;100284.34;5058007;27;45638;-69
2023/03/17 01:20:15;;;;;;;;;25.50;19.75;;;;;12.86;51.90;100301.84;5090470;27;46486;-68
2023/03/17 01:22:41;;;;;;;;;24.75;20.00;;;;;12.77;51.88;100283.59;5076975;27;45536;-68
2023/03/17 01:25:07;;;;;;;;;19.75;17.50;;;;;12.76;51.97;100284.47;5077126;27;45375;-68
2023/03/17 01:27:35;;;;;;;;;21.75;18.25;;;;;12.80;51.86;100294.06;5079939;27;45475;-67
2023/03/17 01:30:02;;;;;;;;;20.00;17.25;;;;;12.86;52.14;100309.72;5079719;27;46053;-65
2023/03/17 01:32:27;;;;;;;;;15.50;15.00;;;;;12.84;51.80;100296.63;5076528;27;45524;-67
2023/03/17 01:34:53;;;;;;;;;22.00;17.75;;;;;12.84;51.98;100290.50;5076940;27;45450;-68
2023/03/17 01:37:20;;;;;;;;;16.50;16.50;;;;;12.82;52.61;100284.41;5081068;27;45441;-67
2023/03/17 01:39:46;;;;;;;;;16.75;16.75;;;;;12.73;52.32;100286.25;5078816;27;47601;-68
2023/03/17 01:42:12;;;;;;;;;15.25;15.25;;;;;12.67;52.13;100283.72;5080204;27;45479;-68
2023/03/17 01:45:03;;;;;;;;;24.25;17.00;;;;;12.67;52.62;100275.84;5076384;27;45476;-67
2023/03/17 01:47:30;;;;;;;;;19.75;14.50;;;;;12.67;52.41;100278.47;5078285;27;45844;-66
2023/03/17 01:49:59;;;;;;;;;20.00;17.75;;;;;12.64;52.48;100280.25;5079926;27;45880;-67
2023/03/17 01:52:26;;;;;;;;;18.00;16.75;;;;;12.62;52.71;100282.03;5078142;28;45480;-69
2023/03/17 01:55:03;;;;;;;;;19.75;17.25;;;;;12.60;52.65;100276.81;5061830;27;45533;-68
2023/03/17 01:57:52;;;;;;;;;18.00;16.75;;;;;12.35;52.86;100249.13;5059849;27;45559;-67
2023/03/17 02:00:20;;;;;;;;;20.50;18.00;;;;;12.32;52.72;100246.56;5059049;27;45500;-68
2023/03/17 02:02:49;;;;;;;;;17.50;17.00;;;;;12.49;53.00;100268.22;5095624;27;45502;-68
2023/03/17 02:05:19;;;;;;;;;18.75;14.75;;;;;12.51;52.89;100271.69;5056564;28;45966;-68
2023/03/17 02:07:45;;;;;;;;;17.75;15.25;;;;;12.54;52.39;100269.00;5057886;27;45418;-67
2023/03/17 02:10:14;;;;;;;;;14.00;13.00;;;;;12.45;52.90;100250.75;5076707;27;46108;-67
2023/03/17 02:12:42;;;;;;;;;18.00;14.00;;;;;12.49;52.90;100262.97;5063087;27;45461;-67
2023/03/17 02:15:10;;;;;;;;;15.75;15.00;;;;;12.38;53.17;100277.97;5076018;27;45411;-68
2023/03/17 02:17:35;;;;;;;;;15.75;15.00;;;;;12.34;53.38;100266.66;5075561;27;45339;-68
2023/03/17 02:20:27;;;;;;;;;17.00;15.75;;;;;12.34;53.04;100284.16;5068281;27;47336;-69
2023/03/17 02:22:54;;;;;;;;;16.50;15.25;;;;;12.35;53.42;100272.78;5068977;27;45497;-69
2023/03/17 02:25:21;;;;;;;;;15.25;12.50;;;;;12.37;53.37;100282.38;5070916;27;45906;-66
2023/03/17 02:27:53;;;;;;;;;14.75;14.50;;;;;12.34;53.38;100269.28;5057824;27;45574;-68
2023/03/17 02:30:21;;;;;;;;;17.75;15.75;;;;;12.40;52.95;100266.56;5069654;27;48177;-68
2023/03/17 02:32:46;;;;;;;;;16.75;15.50;;;;;12.39;53.55;100277.13;5053139;27;45535;-68
2023/03/17 02:35:13;;;;;;;;;17.25;16.25;;;;;12.35;53.30;100263.13;5054209;27;45478;-67
2023/03/17 02:37:39;;;;;;;;;17.50;16.50;;;;;12.29;53.85;100253.59;5054826;27;45442;-67
2023/03/17 02:40:06;;;;;;;;;18.50;16.50;;;;;12.27;53.80;100260.63;5071936;27;46544;-68
2023/03/17 02:42:32;;;;;;;;;14.75;13.75;;;;;12.20;53.58;100256.31;5079233;27;45495;-67
2023/03/17 02:44:58;;;;;;;;;20.00;15.75;;;;;12.13;53.84;100244.16;5078759;27;45384;-68
2023/03/17 02:47:23;;;;;;;;;17.50;15.50;;;;;12.17;53.39;100253.75;5075231;27;45460;-68
2023/03/17 02:49:52;;;;;;;;;19.50;16.00;;;;;12.17;53.84;100266.88;5075056;27;46566;-68
2023/03/17 02:52:18;;;;;;;;;17.75;16.25;;;;;12.07;53.51;100252.09;5060994;27;45751;-67
2023/03/17 02:54:44;;;;;;;;;20.75;15.50;;;;;11.97;53.76;100248.72;5078620;27;45417;-69
2023/03/17 02:57:09;;;;;;;;;16.75;15.00;;;;;12.06;53.57;100258.25;5079374;27;45371;-68
2023/03/17 02:59:36;;;;;;;;;18.50;14.25;;;;;12.03;53.64;100247.75;5078309;27;46545;-68
2023/03/17 03:02:02;;;;;;;;;14.75;14.75;;;;;11.99;53.68;100238.22;5075143;27;45480;-68
2023/03/17 03:04:27;;;;;;;;;15.50;14.50;;;;;12.02;54.03;100236.41;5075748;27;45325;-68
2023/03/17 03:06:53;;;;;;;;;13.00;11.50;;;;;12.11;53.85;100238.06;5075227;27;45377;-67
2023/03/17 03:09:20;;;;;;;;;15.25;13.25;;;;;12.12;53.28;100220.53;5073506;27;45442;-67
2023/03/17 03:11:50;;;;;;;;;18.25;14.50;;;;;12.14;53.93;100234.53;5064390;27;45504;-68
2023/03/17 03:14:15;;;;;;;;;14.25;14.25;;;;;12.09;53.98;100229.34;5071535;27;45559;-68
2023/03/17 03:16:42;;;;;;;;;14.25;13.75;;;;;12.03;53.62;100224.13;5074954;27;45536;-67
2023/03/17 03:19:08;;;;;;;;;13.50;12.75;;;;;12.02;53.66;100230.28;5074571;27;45481;-68
2023/03/17 03:21:34;;;;;;;;;18.25;15.25;;;;;11.94;54.33;100222.50;5077421;27;45438;-69
2023/03/17 03:23:59;;;;;;;;;19.50;15.25;;;;;11.89;54.57;100221.72;5089542;27;45706;-68
2023/03/17 03:26:26;;;;;;;;;17.50;17.50;;;;;11.86;54.61;100225.22;5079061;27;45451;-69
2023/03/17 03:28:52;;;;;;;;;21.00;15.75;;;;;11.83;54.53;100237.47;5094506;27;45597;-68
2023/03/17 03:31:18;;;;;;;;;22.25;16.75;;;;;11.84;54.54;100234.84;5078816;27;45428;-68
2023/03/17 03:33:44;;;;;;;;;18.50;15.25;;;;;11.71;54.96;100219.25;5078774;27;45361;-68
2023/03/17 03:36:10;;;;;;;;;17.25;17.25;;;;;11.72;55.27;100229.75;5077740;27;45485;-68
2023/03/17 03:38:35;;;;;;;;;21.00;19.00;;;;;11.68;55.28;100223.63;5090565;27;46631;-67
2023/03/17 03:41:01;;;;;;;;;20.25;15.75;;;;;11.71;55.00;100237.63;5073356;28;45560;-68
2023/03/17 03:43:27;;;;;;;;;18.75;14.50;;;;;11.74;55.13;100251.56;5110798;27;45444;-67
2023/03/17 03:45:53;;;;;;;;;18.75;17.00;;;;;11.74;55.38;100248.06;5074220;27;45306;-68
2023/03/17 03:48:20;;;;;;;;;24.00;17.25;;;;;11.78;54.91;100260.28;5074195;27;45435;-68
2023/03/17 03:50:46;;;;;;;;;20.00;15.50;;;;;11.79;55.50;100241.00;5073665;27;45679;-68
2023/03/17 03:53:12;;;;;;;;;21.00;17.50;;;;;11.81;54.90;100242.72;5073862;27;45516;-66
2023/03/17 03:55:38;;;;;;;;;12.75;12.75;;;;;11.84;55.30;100247.06;5073203;27;45532;-67
2023/03/17 03:58:03;;;;;;;;;13.25;13.25;;;;;11.88;54.95;100259.31;5090177;27;45691;-68
2023/03/17 04:00:29;;;;;;;;;17.25;14.25;;;;;11.83;54.93;100243.59;5109025;27;45453;-67
2023/03/17 04:02:54;;;;;;;;;20.75;14.00;;;;;11.93;54.69;100259.25;5074494;27;45439;-69
2023/03/17 04:05:21;;;;;;;;;15.00;12.00;;;;;11.91;54.90;100251.41;5076817;27;45361;-68
2023/03/17 04:07:46;;;;;;;;;15.50;14.25;;;;;11.93;54.71;100244.38;5078290;27;45393;-67
2023/03/17 04:10:14;;;;;;;;;11.75;11.75;;;;;11.92;54.86;100258.41;5073488;27;45610;-67
2023/03/17 04:12:40;;;;;;;;;13.00;12.25;;;;;11.87;54.54;100258.44;5059921;27;45381;-67
2023/03/17 04:15:08;;;;;;;;;14.25;12.75;;;;;11.85;54.25;100248.81;5074094;27;45466;-68
2023/03/17 04:17:34;;;;;;;;;13.75;11.75;;;;;11.93;54.67;100256.63;5091977;27;46645;-67
2023/03/17 04:20:00;;;;;;;;;15.00;10.50;;;;;11.92;54.36;100260.16;5076642;27;45377;-68
2023/03/17 04:22:26;;;;;;;;;11.75;9.50;;;;;11.95;54.62;100262.75;5077670;27;45425;-67
2023/03/17 04:24:51;;;;;;;;;14.50;12.50;;;;;11.93;54.35;100252.25;5078235;27;45412;-67
2023/03/17 04:27:17;;;;;;;;;12.50;11.75;;;;;11.99;54.45;100252.19;5073608;27;46240;-68
2023/03/17 04:29:43;;;;;;;;;14.00;10.75;;;;;12.00;54.43;100253.91;5087677;27;45718;-67
2023/03/17 04:32:12;;;;;;;;;19.00;12.75;;;;;12.05;54.07;100253.88;5078012;27;45519;-68
2023/03/17 04:34:38;;;;;;;;;12.25;11.25;;;;;11.96;54.37;100249.63;5078198;27;45539;-68
2023/03/17 04:37:04;;;;;;;;;11.00;9.75;;;;;11.98;54.62;100246.94;5077824;27;46208;-68
2023/03/17 04:39:29;;;;;;;;;15.25;11.50;;;;;11.95;53.96;100231.25;5076884;27;45412;-68
2023/03/17 04:41:55;;;;;;;;;16.00;11.25;;;;;11.96;54.00;100241.75;5077728;27;45451;-68
2023/03/17 04:44:20;;;;;;;;;14.75;12.00;;;;;11.91;54.62;100243.53;5076525;27;45544;-67
2023/03/17 04:46:46;;;;;;;;;14.00;13.00;;;;;11.82;54.12;100234.00;5077441;27;45623;-67
2023/03/17 04:49:12;;;;;;;;;15.00;12.00;;;;;11.84;54.40;100249.69;5077980;27;45373;-67
2023/03/17 04:51:37;;;;;;;;;11.50;10.00;;;;;11.75;54.58;100252.44;5074310;27;45396;-68
2023/03/17 04:54:04;;;;;;;;;9.75;9.25;;;;;11.70;54.92;100248.97;5073198;27;45527;-67
2023/03/17 04:56:30;;;;;;;;;15.25;9.50;;;;;11.59;55.29;100256.97;5076284;27;45330;-67
2023/03/17 04:58:56;;;;;;;;;12.50;10.25;;;;;11.49;55.34;100255.31;5106211;27;45405;-68
2023/03/17 05:01:21;;;;;;;;;14.50;13.00;;;;;11.39;55.68;100237.06;5073745;27;45388;-67
2023/03/17 05:03:47;;;;;;;;;15.00;12.50;;;;;11.45;55.28;100254.47;5075649;27;45517;-67
2023/03/17 05:06:12;;;;;;;;;16.75;11.75;;;;;11.42;55.72;100252.75;5076933;27;45671;-67
2023/03/17 05:08:39;;;;;;;;;12.25;10.50;;;;;11.44;55.80;100258.00;5080360;27;45512;-68
2023/03/17 05:11:05;;;;;;;;;12.00;10.25;;;;;11.55;55.57;100260.50;5072021;27;45507;-68
2023/03/17 05:13:30;;;;;;;;;10.00;10.00;;;;;11.58;55.40;100252.59;5068163;27;45458;-67
2023/03/17 05:15:58;;;;;;;;;10.50;10.50;;;;;11.53;55.17;100246.53;5079386;27;46732;-67
2023/03/17 05:18:25;;;;;;;;;14.50;10.50;;;;;11.61;55.33;100260.44;5078162;27;45630;-67
2023/03/17 05:20:51;;;;;;;;;9.00;9.00;;;;;11.65;55.30;100263.03;5076538;27;45712;-67
2023/03/17 05:23:17;;;;;;;;;12.25;9.25;;;;;11.67;55.48;100263.88;5080071;27;45416;-68
2023/03/17 05:25:42;;;;;;;;;8.50;8.50;;;;;11.61;55.29;100249.97;5109490;27;46815;-68
2023/03/17 05:28:09;;;;;;;;;8.25;8.25;;;;;11.65;55.66;100252.53;5109152;27;45540;-67
2023/03/17 05:30:35;;;;;;;;;12.75;7.75;;;;;11.66;55.16;100245.53;5109562;27;45454;-67
2023/03/17 05:33:02;;;;;;;;;13.25;7.25;;;;;11.75;54.74;100253.31;5062302;27;45409;-68
2023/03/17 05:35:27;;;;;;;;;9.50;9.50;;;;;11.69;55.20;100269.09;5055585;27;46851;-68
2023/03/17 05:37:58;;;;;;;;;10.25;10.25;;;;;11.55;55.42;100243.00;5060190;27;45463;-69
2023/03/17 05:40:29;;;;;;;;;15.25;9.75;;;;;11.49;55.57;100253.56;5053656;27;45549;-68
2023/03/17 05:42:57;;;;;;;;;12.75;10.00;;;;;11.44;55.98;100253.59;5056806;27;45561;-67
2023/03/17 05:45:23;;;;;;;;;13.00;10.00;;;;;11.43;55.91;100259.72;5095386;27;46192;-67
2023/03/17 05:47:48;;;;;;;;;12.00;8.25;;;;;11.25;55.91;100233.69;5058858;27;45504;-67
2023/03/17 05:50:14;;;;;;;;;10.75;9.50;;;;;11.33;56.23;100252.81;5058933;27;45433;-68
2023/03/17 05:52:40;;;;;;;;;10.25;8.25;;;;;11.29;56.02;100237.13;5056070;27;45461;-68
2023/03/17 05:55:07;;;;;;;;;12.00;10.00;;;;;11.31;56.09;100241.47;5055244;27;46756;-67
2023/03/17 05:57:34;;;;;;;;;12.50;10.25;;;;;11.39;56.22;100246.66;5055958;28;46589;-66
2023/03/17 06:00:08;;;;;;;;;11.00;10.25;;;;;11.41;56.32;100261.50;5058964;27;46651;-67
2023/03/17 06:02:34;;;;;;;;;13.50;10.00;;;;;11.40;56.66;100267.63;5060226;27;45440;-67
2023/03/17 06:05:00;;;;;;;;;9.25;9.25;;;;;11.38;56.53;100261.53;5058185;27;45540;-67
2023/03/17 06:07:25;;;;;;;;;13.50;10.00;;;;;11.42;56.33;100244.88;5055401;28;45524;-68
2023/03/17 06:09:51;;;;;;;;;8.50;8.50;;;;;11.46;56.44;100251.84;5055318;27;45482;-68
2023/03/17 06:12:17;;;;;;;;;9.75;7.25;;;;;11.44;56.17;100255.38;5055999;27;45568;-67
2023/03/17 06:14:42;;;;;;;;;11.50;7.75;;;;;11.44;56.53;100252.75;5091436;27;45483;-68
2023/03/17 06:17:08;;;;;;;;;16.50;13.25;;;;;11.49;56.02;100252.72;5078803;28;45436;-67
2023/03/17 06:19:33;;;;;;;;;9.75;7.25;;;;;11.57;56.44;100270.09;5075751;27;45833;-69
2023/03/17 06:21:59;;;;;;;;;14.25;11.25;;;;;11.59;56.29;100265.69;5076830;27;45405;-68
2023/03/17 06:24:25;;;;;;;;;14.00;10.50;;;;;11.58;56.37;100263.06;5079348;27;45970;-68
2023/03/17 06:26:51;;;;;;;;;11.00;10.25;;;;;11.55;56.36;100258.72;5079276;27;45347;-70
2023/03/17 06:29:21;;;;;;;;;14.50;11.75;;;;;11.59;56.40;100280.56;5075995;27;45539;-68
2023/03/17 06:31:49;;;;;;;;;13.25;11.00;;;;;11.58;56.62;100271.84;5075798;27;45463;-67
2023/03/17 06:34:23;;;;;;;;;13.50;10.25;;;;;11.64;56.40;100273.53;5073707;27;46952;-67
2023/03/17 06:36:49;;;;;;;;;10.50;9.75;;;;;11.65;56.61;100264.75;5060589;28;45572;-67
2023/03/17 06:39:17;;;;;;;;;10.50;10.00;;;;;11.68;56.49;100259.50;5074313;27;45539;-70
2023/03/17 06:41:53;;;;;;;;;12.00;8.25;;;;;11.74;56.22;100271.69;5075524;27;45742;-68
2023/03/17 06:44:19;;;;;;;;;12.50;10.00;;;;;11.62;56.13;100235.94;5075016;27;45569;-66
2023/03/17 06:46:53;;;;;;;;;12.50;9.75;;;;;11.72;56.35;100250.72;5062953;27;45367;-67
2023/03/17 06:49:20;;;;;;;;;11.75;10.25;;;;;11.64;56.36;100252.53;5062887;27;45470;-67
2023/03/17 06:51:46;;;;;;;;;13.50;11.00;;;;;11.73;56.19;100269.94;5066042;27;45439;-68
2023/03/17 06:54:12;;;;;;;;;14.00;10.25;;;;;11.73;55.91;100277.81;5056033;27;46158;-67
2023/03/17 06:56:38;;;;;;;;;13.75;11.50;;;;;11.78;55.93;100279.50;5054623;27;45792;-68
2023/03/17 06:59:03;;;;;;;;;17.50;14.25;;;;;11.76;55.78;100280.41;5054749;27;45823;-67
2023/03/17 07:01:29;;;;;;;;;13.75;10.25;;;;;11.78;56.02;100284.75;5054598;27;45405;-66
2023/03/17 07:03:55;;;;;;;;;13.50;11.00;;;;;11.78;56.40;100289.13;5058368;27;45368;-67
2023/03/17 07:06:22;;;;;;;;;14.00;12.50;;;;;11.84;56.34;100295.19;5056087;28;45880;-66
2023/03/17 07:08:48;;;;;;;;;14.00;9.25;;;;;11.88;55.97;100289.03;5054911;28;45346;-67
2023/03/17 07:11:14;;;;;;;;;14.75;12.00;;;;;11.81;56.06;100265.47;5054109;27;45406;-67
2023/03/17 07:13:40;;;;;;;;;13.75;13.50;;;;;11.81;56.19;100281.22;5067588;27;46392;-67
2023/03/17 07:16:06;;;;;;;;;14.25;12.25;;;;;11.85;56.48;100264.56;5078582;27;46102;-67
2023/03/17 07:18:32;;;;;;;;;11.00;11.00;;;;;11.94;55.61;100272.38;5076806;27;45399;-68
2023/03/17 07:21:00;;;;;;;;;8.25;8.25;;;;;12.06;55.38;100274.88;5074969;27;45548;-69
2023/03/17 07:23:26;;;;;;;;;14.25;12.50;;;;;12.08;55.05;100266.97;5074222;27;46052;-67
2023/03/17 07:25:58;;;;;;;;;13.00;11.25;;;;;12.09;54.86;100258.19;5077789;27;45366;-67
2023/03/17 07:28:24;;;;;;;;;13.25;9.25;;;;;12.29;54.81;100292.09;5111014;27;45602;-67
2023/03/17 07:30:50;;;;;;;;;14.25;13.00;;;;;12.36;55.01;100292.88;5107256;27;46095;-68
2023/03/17 07:33:18;;;;;;;;;12.00;11.00;;;;;12.35;54.49;100285.91;5074386;27;45415;-67
2023/03/17 07:35:44;;;;;;;;;13.00;10.25;;;;;12.54;53.92;100287.41;5074685;27;45357;-68
2023/03/17 07:38:10;;;;;;;;;16.00;10.25;;;;;12.62;54.31;100293.41;5074361;27;45343;-67
2023/03/17 07:40:37;;;;;;;;;10.50;9.50;;;;;12.75;53.74;100314.28;5077412;27;45275;-67
2023/03/17 07:43:03;;;;;;;;;10.50;10.50;;;;;12.77;53.09;100294.13;5073672;27;46372;-69
2023/03/17 07:45:29;;;;;;;;;11.75;9.75;;;;;12.88;52.44;100298.34;5074125;27;45677;-67
2023/03/17 07:47:55;;;;;;;;;12.00;10.75;;;;;12.92;52.55;100292.13;5059552;27;45475;-68
2023/03/17 07:50:21;;;;;;;;;13.75;13.00;;;;;12.89;51.94;100284.28;5062811;27;45668;-66
2023/03/17 07:52:47;;;;;;;;;11.50;9.00;;;;;12.86;52.13;100286.97;5053550;28;46793;-69
2023/03/17 07:55:12;;;;;;;;;10.25;8.25;;;;;12.90;52.39;100287.78;5054229;27;45906;-68
2023/03/17 07:57:38;;;;;;;;;11.50;10.00;;;;;12.94;52.42;100298.22;5054381;27;45398;-66
2023/03/17 08:00:08;;;;;;;;;10.50;10.50;;;;;13.01;52.08;100293.75;5060322;28;45467;-68
2023/03/17 08:02:35;;;;;;;;;10.25;8.25;;;;;13.14;51.75;100299.69;5064595;27;45591;-67
2023/03/17 08:05:02;;;;;;;;;11.75;9.75;;;;;13.14;51.28;100290.06;5065670;27;45860;-67
2023/03/17 08:07:29;;;;;;;;;11.75;8.75;;;;;13.18;51.06;100293.50;5088711;27;46521;-67
2023/03/17 08:09:56;;;;;;;;;16.25;10.25;;;;;13.29;50.29;100310.00;5068782;27;45448;-68
2023/03/17 08:12:22;;;;;;;;;8.25;7.25;;;;;13.30;50.50;100301.22;5068908;27;46197;-68
2023/03/17 08:14:48;;;;;;;;;8.75;6.25;;;;;13.39;49.82;100297.56;5069370;27;45652;-67
2023/03/17 08:17:13;;;;;;;;;7.75;7.75;;;;;13.40;49.45;100287.91;5064962;28;45502;-67
2023/03/17 08:19:39;;;;;;;;;9.00;9.00;;;;;13.52;49.42;100293.81;5053226;27;45728;-68
2023/03/17 08:22:05;;;;;;;;;9.50;6.50;;;;;13.57;49.10;100284.09;5051736;27;46641;-67
2023/03/17 08:24:31;;;;;;;;;9.50;8.25;;;;;13.71;48.69;100291.72;5051296;27;45468;-63
2023/03/17 08:26:57;;;;;;;;;6.50;4.75;;;;;13.78;48.72;100281.97;5053313;28;45432;-67
2023/03/17 08:29:23;;;;;;;;;9.00;7.75;;;;;13.96;48.25;100286.91;5053306;27;45634;-68
2023/03/17 08:31:48;;;;;;;;;7.50;7.25;;;;;14.09;47.29;100292.78;5058671;27;45400;-67
2023/03/17 08:34:15;;;;;;;;;9.33;8.67;;;;;14.16;46.83;100304.94;5058676;27;45645;-67
2023/03/17 08:36:41;;;;;;;;;7.33;6.00;;;;;14.21;47.39;100300.47;5052525;28;45276;-67
2023/03/17 08:39:09;;;;;;;;;4.67;4.67;;;;;14.27;46.52;100278.41;5053565;28;45584;-67
2023/03/17 08:41:36;;;;;;;;;7.00;5.00;;;;;14.39;46.40;100295.72;5052859;27;45483;-66
2023/03/17 08:44:02;;;;;;;;;5.67;5.67;;;;;14.50;46.36;100283.19;5053404;27;45489;-67
2023/03/17 08:46:31;;;;;;;;;5.00;4.33;;;;;14.63;46.08;100275.91;5053680;28;45510;-66
2023/03/17 08:48:58;;;;;;;;;6.00;5.67;;;;;14.84;46.19;100266.66;5053860;27;45664;-68
2023/03/17 08:51:28;;;;;;;;;8.33;7.67;;;;;14.96;45.63;100265.50;5052783;27;46470;-66
2023/03/17 08:53:54;;;;;;;;;8.00;6.00;;;;;15.01;45.60;100264.47;5053541;27;45464;-67
2023/03/17 08:56:21;;;;;;;;;8.33;7.33;;;;;15.11;44.97;100270.41;5068754;27;45531;-67
2023/03/17 08:58:47;;;;;;;;;8.00;7.33;;;;;15.19;45.09;100273.72;5059622;27;45613;-65
2023/03/17 09:01:14;;;;;;;;;10.33;7.33;;;;;15.30;44.60;100270.81;5053989;28;45539;-66
2023/03/17 09:03:40;;;;;;;;;6.00;5.67;;;;;15.37;43.89;100266.25;5065436;28;45780;-72
2023/03/17 09:06:08;;;;;;;;;8.00;8.00;;;;;15.47;43.49;100273.91;5062936;27;45449;-66
2023/03/17 09:08:34;;;;;;;;;9.67;6.00;;;;;15.47;43.61;100259.81;5053222;27;45458;-66
2023/03/17 09:11:02;;;;;;;;;7.00;7.00;;;;;15.62;43.76;100262.09;5054595;28;45629;-67
2023/03/17 09:13:28;;;;;;;;;6.00;6.00;;;;;15.86;43.65;100276.44;5064380;27;45595;-65
2023/03/17 09:15:54;;;;;;;;;7.67;6.00;;;;;15.91;42.94;100239.34;5073092;27;45483;-67
2023/03/17 09:18:21;;;;;;;;;9.67;6.00;;;;;16.04;42.41;100247.78;5073301;27;45467;-68
2023/03/17 09:20:46;;;;;;;;;5.00;5.00;;;;;16.21;42.26;100264.03;5072680;27;45684;-67
2023/03/17 09:23:12;;;;;;;;;9.67;5.67;;;;;16.22;42.02;100241.97;5074001;27;45575;-68
2023/03/17 09:25:41;;;;;;;;;8.00;5.00;;;;;16.44;40.95;100251.91;5075639;27;45484;-67
2023/03/17 09:28:06;;;;;;;;;4.67;4.67;;;;;16.49;41.06;100256.16;5072761;27;45469;-68
2023/03/17 09:30:33;;;;;;;;;5.67;4.00;;;;;16.57;40.16;100257.69;5070928;27;47002;-66
2023/03/17 09:32:59;;;;;;;;;4.00;4.00;;;;;16.72;40.73;100246.63;5071566;27;45736;-66
2023/03/17 09:35:26;;;;;;;;;4.33;3.00;;;;;16.90;39.75;100261.97;5074138;27;45389;-67
2023/03/17 09:37:53;;;;;;;;;3.67;3.33;;;;;17.02;39.79;100259.84;5108374;27;45322;-67
2023/03/17 09:40:31;;;;;;;;;4.33;3.00;;;;;17.23;39.75;100237.97;5071180;27;45559;-69
2023/03/17 09:43:11;;;;;;;;;2.67;1.33;;;;;17.47;39.68;100233.63;5072886;27;45803;-65
2023/03/17 09:45:39;;;;;;;;;5.33;4.00;;;;;17.68;38.30;100245.28;5072629;27;45819;-67
2023/03/17 09:48:32;;;;;;;;;5.00;4.00;;;;;17.91;38.86;100257.72;5090084;27;45531;-64
2023/03/17 09:51:05;;;;;;;;;3.33;2.33;;;;;18.01;38.22;100245.03;5075932;27;45626;-65
2023/03/17 09:54:00;;;;;;;;;3.00;3.00;;;;;18.15;38.08;100240.06;5075611;27;45447;-65
2023/03/17 09:56:28;;;;;;;;;5.00;3.67;;;;;18.30;38.53;100235.13;5073493;27;45385;-63
2023/03/17 09:58:57;;;;;;;;;3.67;3.67;;;;;18.41;37.56;100236.44;5076166;27;45742;-64
2023/03/17 10:01:23;;;;;;;;;3.00;3.00;;;;;18.46;37.16;100233.63;5075844;27;45980;-65
2023/03/17 10:03:50;;;;;;;;;4.00;4.00;;;;;18.44;37.46;100240.75;5075794;27;45708;-64
2023/03/17 10:06:46;;;;;;;;;8.67;4.00;;;;;18.38;37.17;100246.28;5076122;27;45615;-65
2023/03/17 10:09:36;;;;;;;;;5.00;4.00;;;;;18.31;37.35;100245.66;5095899;27;45369;-64
2023/03/17 10:12:17;;;;;;;;;5.67;4.00;;;;;18.22;37.25;100244.22;5062228;27;45413;-65
2023/03/17 10:15:05;;;;;;;;;2.33;2.33;;;;;18.34;37.11;100256.16;5062641;27;45466;-65
2023/03/17 10:17:35;;;;;;;;;4.00;4.00;;;;;18.33;37.01;100259.72;5075521;27;45525;-65
2023/03/17 10:20:20;;;;;;;;;4.33;4.00;;;;;18.42;37.01;100262.03;5065313;27;45447;-65
2023/03/17 10:22:48;;;;;;;;;3.33;3.33;;;;;18.46;37.25;100260.13;5058668;27;46505;-65
2023/03/17 10:25:17;;;;;;;;;4.67;3.00;;;;;18.39;37.30;100272.75;5053912;28;45648;-65
2023/03/17 10:27:51;;;;;;;;;6.33;3.00;;;;;18.31;37.59;100266.84;5056877;27;45609;-64
2023/03/17 10:30:20;;;;;;;;;2.67;2.00;;;;;18.26;37.37;100267.97;5055690;27;45256;-67
2023/03/17 10:32:47;;;;;;;;;4.33;3.33;;;;;18.23;37.50;100277.75;5056295;27;45548;-68
2023/03/17 10:35:15;;;;;;;;;3.33;1.67;;;;;18.26;37.92;100263.50;5055202;27;45614;-65
2023/03/17 10:37:41;;;;;;;;;1.00;1.00;;;;;18.33;38.09;100261.50;5055231;27;45481;-65
2023/03/17 10:40:10;;;;;;;;;1.67;1.67;;;;;18.35;38.66;100262.31;5059868;27;45471;-66
2023/03/17 10:42:48;;;;;;;;;2.33;2.00;;;;;18.40;38.71;100257.69;5057164;27;45601;-63
2023/03/17 10:45:24;;;;;;;;;2.33;2.33;;;;;18.34;37.85;100261.47;5054847;27;45453;-64
2023/03/17 10:47:50;;;;;;;;;3.00;3.00;;;;;18.22;38.41;100246.88;5054723;27;45474;-65
2023/03/17 10:50:28;;;;;;;;;4.33;2.33;;;;;18.27;38.66;100246.72;5059400;27;45537;-63
2023/03/17 10:53:03;;;;;;;;;1.33;1.33;;;;;18.27;38.32;100254.66;5055815;27;46834;-65
2023/03/17 10:55:32;;;;;;;;;4.00;2.33;;;;;18.23;38.70;100247.72;5055015;28;45643;-64
2023/03/17 10:58:37;;;;;;;;;3.00;3.00;;;;;18.12;38.71;100250.75;5056686;27;45516;-65
2023/03/17 11:01:48;;;;;;;;;3.00;3.00;;;;;18.07;38.86;100252.72;5056560;27;45520;-64
2023/03/17 11:04:20;;;;;;;;;2.33;2.33;;;;;17.96;38.87;100246.94;5041654;28;45725;-66
2023/03/17 11:06:50;;;;;;;;;5.33;3.00;;;;;17.92;38.64;100248.00;5051421;28;45442;-65
2023/03/17 11:09:18;;;;;;;;;4.00;3.00;;;;;17.77;38.68;100249.34;5054079;27;45489;-64
2023/03/17 11:11:46;;;;;;;;;2.67;2.00;;;;;17.78;38.86;100267.00;5057051;27;45471;-64
2023/03/17 11:14:14;;;;;;;;;2.33;2.33;;;;;17.87;38.65;100273.75;5071485;27;45854;-65
2023/03/17 11:16:58;;;;;;;;;4.67;3.00;;;;;18.13;38.60;100275.50;5075126;27;45856;-62
2023/03/17 11:19:41;;;;;;;;;3.33;2.00;;;;;18.44;37.90;100257.53;5074285;27;45420;-65